sensor_id;sensor_type;location;lat;lon;timestamp;P1;durP1;ratioP1;P2;durP2;ratioP2
55308;SDS011;44028;51.358;19.876;2022-11-20T13:35:25;92.10;;;35.80;;
55308;SDS011;44028;51.358;19.876;2022-11-20T13:38:02;105.55;;;40.75;;
55308;SDS011;44028;51.358;19.876;2022-11-20T13:40:29;143.73;;;52.33;;
55308;SDS011;44028;51.358;19.876;2022-11-20T13:43:07;103.35;;;37.90;;
55308;SDS011;44028;51.358;19.876;2022-11-20T13:45:35;200.95;;;69.18;;
55308;SDS011;44028;51.358;19.876;2022-11-20T13:48:02;86.35;;;34.55;;
55308;SDS011;44028;51.358;19.876;2022-11-20T13:58:04;184.48;;;64.25;;
55308;SDS011;44028;51.358;19.876;2022-11-20T14:00:32;135.07;;;53.42;;
55308;SDS011;44028;51.358;19.876;2022-11-20T14:03:07;91.30;;;38.35;;
55308;SDS011;44028;51.358;19.876;2022-11-20T14:05:37;108.88;;;45.13;;
55308;SDS011;44028;51.358;19.876;2022-11-20T14:08:05;129.45;;;50.10;;
55308;SDS011;44028;51.358;19.876;2022-11-20T14:10:33;108.93;;;45.78;;
55308;SDS011;44028;51.358;19.876;2022-11-20T14:13:09;102.30;;;41.17;;
55308;SDS011;44028;51.358;19.876;2022-11-20T14:15:36;91.35;;;37.28;;
55308;SDS011;44028;51.358;19.876;2022-11-20T14:18:11;94.60;;;41.28;;
55308;SDS011;44028;51.358;19.876;2022-11-20T14:20:38;108.05;;;40.38;;
55308;SDS011;44028;51.358;19.876;2022-11-20T14:23:07;122.68;;;48.50;;
55308;SDS011;44028;51.358;19.876;2022-11-20T14:25:35;131.82;;;51.50;;
55308;SDS011;44028;51.358;19.876;2022-11-20T14:28:03;151.30;;;57.28;;
55308;SDS011;44028;51.358;19.876;2022-11-20T14:33:11;242.45;;;90.05;;
55308;SDS011;44028;51.358;19.876;2022-11-20T14:35:49;181.48;;;70.53;;
55308;SDS011;44028;51.358;19.876;2022-11-20T14:38:17;172.48;;;69.45;;
55308;SDS011;44028;51.358;19.876;2022-11-20T14:40:46;171.25;;;65.28;;
55308;SDS011;44028;51.358;19.876;2022-11-20T14:45:45;172.80;;;66.15;;
55308;SDS011;44028;51.358;19.876;2022-11-20T14:48:13;175.52;;;64.28;;
55308;SDS011;44028;51.358;19.876;2022-11-20T14:50:41;186.43;;;65.65;;
55308;SDS011;44028;51.358;19.876;2022-11-20T14:53:07;201.07;;;72.78;;
55308;SDS011;44028;51.358;19.876;2022-11-20T14:55:36;194.90;;;72.60;;
55308;SDS011;44028;51.358;19.876;2022-11-20T14:58:06;233.18;;;79.88;;
55308;SDS011;44028;51.358;19.876;2022-11-20T15:03:35;312.42;;;97.10;;
55308;SDS011;44028;51.358;19.876;2022-11-20T15:06:05;363.58;;;103.05;;
55308;SDS011;44028;51.358;19.876;2022-11-20T15:08:34;353.83;;;104.63;;
55308;SDS011;44028;51.358;19.876;2022-11-20T15:11:03;324.77;;;101.70;;
55308;SDS011;44028;51.358;19.876;2022-11-20T15:13:31;288.63;;;95.00;;
55308;SDS011;44028;51.358;19.876;2022-11-20T15:16:00;300.13;;;101.20;;
55308;SDS011;44028;51.358;19.876;2022-11-20T15:18:37;327.52;;;119.63;;
55308;SDS011;44028;51.358;19.876;2022-11-20T15:21:14;326.80;;;107.47;;
55308;SDS011;44028;51.358;19.876;2022-11-20T15:23:41;322.55;;;107.28;;
55308;SDS011;44028;51.358;19.876;2022-11-20T15:26:08;313.45;;;105.63;;
55308;SDS011;44028;51.358;19.876;2022-11-20T15:28:41;305.65;;;96.57;;
55308;SDS011;44028;51.358;19.876;2022-11-20T15:31:13;370.60;;;103.00;;
55308;SDS011;44028;51.358;19.876;2022-11-20T15:33:41;295.27;;;88.97;;
55308;SDS011;44028;51.358;19.876;2022-11-20T15:36:09;313.95;;;92.25;;
55308;SDS011;44028;51.358;19.876;2022-11-20T15:38:38;362.25;;;101.50;;
55308;SDS011;44028;51.358;19.876;2022-11-20T15:41:05;344.75;;;98.65;;
55308;SDS011;44028;51.358;19.876;2022-11-20T15:43:32;248.88;;;82.18;;
55308;SDS011;44028;51.358;19.876;2022-11-20T15:46:02;291.00;;;88.43;;
55308;SDS011;44028;51.358;19.876;2022-11-20T15:48:31;286.38;;;85.88;;
55308;SDS011;44028;51.358;19.876;2022-11-20T15:51:34;245.25;;;77.72;;
55308;SDS011;44028;51.358;19.876;2022-11-20T15:53:59;215.70;;;66.70;;
55308;SDS011;44028;51.358;19.876;2022-11-20T15:56:27;185.45;;;63.15;;
55308;SDS011;44028;51.358;19.876;2022-11-20T15:58:53;185.55;;;55.75;;
55308;SDS011;44028;51.358;19.876;2022-11-20T16:01:21;158.85;;;53.55;;
55308;SDS011;44028;51.358;19.876;2022-11-20T16:03:49;171.05;;;57.20;;
55308;SDS011;44028;51.358;19.876;2022-11-20T16:06:21;178.18;;;52.47;;
55308;SDS011;44028;51.358;19.876;2022-11-20T16:08:50;174.73;;;59.30;;
55308;SDS011;44028;51.358;19.876;2022-11-20T16:11:17;184.27;;;55.53;;
55308;SDS011;44028;51.358;19.876;2022-11-20T16:13:45;184.10;;;54.67;;
55308;SDS011;44028;51.358;19.876;2022-11-20T16:16:39;215.68;;;65.65;;
55308;SDS011;44028;51.358;19.876;2022-11-20T16:19:13;217.77;;;71.60;;
55308;SDS011;44028;51.358;19.876;2022-11-20T16:21:49;206.23;;;72.05;;
55308;SDS011;44028;51.358;19.876;2022-11-20T16:24:17;198.02;;;65.85;;
55308;SDS011;44028;51.358;19.876;2022-11-20T16:26:44;180.25;;;63.28;;
55308;SDS011;44028;51.358;19.876;2022-11-20T16:29:11;166.82;;;60.65;;
55308;SDS011;44028;51.358;19.876;2022-11-20T16:31:38;193.68;;;63.65;;
55308;SDS011;44028;51.358;19.876;2022-11-20T16:34:06;276.70;;;90.75;;
55308;SDS011;44028;51.358;19.876;2022-11-20T16:36:41;260.45;;;91.45;;
55308;SDS011;44028;51.358;19.876;2022-11-20T16:39:09;319.90;;;111.25;;
55308;SDS011;44028;51.358;19.876;2022-11-20T16:41:36;321.42;;;109.18;;
55308;SDS011;44028;51.358;19.876;2022-11-20T16:44:07;283.45;;;92.88;;
55308;SDS011;44028;51.358;19.876;2022-11-20T16:46:35;264.08;;;84.68;;
55308;SDS011;44028;51.358;19.876;2022-11-20T16:49:05;222.20;;;75.30;;
55308;SDS011;44028;51.358;19.876;2022-11-20T16:51:39;294.75;;;91.00;;
55308;SDS011;44028;51.358;19.876;2022-11-20T16:54:28;217.27;;;73.53;;
55308;SDS011;44028;51.358;19.876;2022-11-20T16:56:55;232.65;;;73.13;;
55308;SDS011;44028;51.358;19.876;2022-11-20T16:59:22;191.20;;;62.28;;
55308;SDS011;44028;51.358;19.876;2022-11-20T17:01:52;240.43;;;71.47;;
55308;SDS011;44028;51.358;19.876;2022-11-20T17:04:19;210.55;;;68.63;;
55308;SDS011;44028;51.358;19.876;2022-11-20T17:06:47;166.80;;;53.40;;
55308;SDS011;44028;51.358;19.876;2022-11-20T17:09:14;216.73;;;74.95;;
55308;SDS011;44028;51.358;19.876;2022-11-20T17:11:41;182.57;;;65.88;;
55308;SDS011;44028;51.358;19.876;2022-11-20T17:14:09;137.98;;;47.40;;
55308;SDS011;44028;51.358;19.876;2022-11-20T17:16:41;211.30;;;69.30;;
55308;SDS011;44028;51.358;19.876;2022-11-20T17:19:09;188.55;;;62.45;;
55308;SDS011;44028;51.358;19.876;2022-11-20T17:21:40;162.15;;;55.83;;
55308;SDS011;44028;51.358;19.876;2022-11-20T17:24:15;166.18;;;58.90;;
55308;SDS011;44028;51.358;19.876;2022-11-20T17:27:08;182.20;;;63.28;;
55308;SDS011;44028;51.358;19.876;2022-11-20T17:29:38;154.70;;;57.90;;
55308;SDS011;44028;51.358;19.876;2022-11-20T17:32:07;138.90;;;51.70;;
55308;SDS011;44028;51.358;19.876;2022-11-20T17:34:34;168.75;;;58.67;;
55308;SDS011;44028;51.358;19.876;2022-11-20T17:37:13;152.70;;;53.17;;
55308;SDS011;44028;51.358;19.876;2022-11-20T17:39:45;167.75;;;56.15;;
55308;SDS011;44028;51.358;19.876;2022-11-20T17:42:15;176.93;;;61.58;;
55308;SDS011;44028;51.358;19.876;2022-11-20T17:44:55;281.83;;;94.45;;
55308;SDS011;44028;51.358;19.876;2022-11-20T17:47:25;136.68;;;49.40;;
55308;SDS011;44028;51.358;19.876;2022-11-20T17:49:53;156.90;;;57.90;;
55308;SDS011;44028;51.358;19.876;2022-11-20T17:52:20;156.32;;;58.88;;
55308;SDS011;44028;51.358;19.876;2022-11-20T17:54:48;218.57;;;77.53;;
55308;SDS011;44028;51.358;19.876;2022-11-20T17:57:16;142.02;;;57.03;;
55308;SDS011;44028;51.358;19.876;2022-11-20T17:59:57;181.43;;;66.57;;
55308;SDS011;44028;51.358;19.876;2022-11-20T18:02:27;148.73;;;55.60;;
55308;SDS011;44028;51.358;19.876;2022-11-20T18:04:57;140.82;;;54.58;;
55308;SDS011;44028;51.358;19.876;2022-11-20T18:07:24;151.18;;;57.67;;
55308;SDS011;44028;51.358;19.876;2022-11-20T18:09:53;182.57;;;65.90;;
55308;SDS011;44028;51.358;19.876;2022-11-20T18:12:24;126.18;;;44.83;;
55308;SDS011;44028;51.358;19.876;2022-11-20T18:14:52;151.95;;;50.97;;
55308;SDS011;44028;51.358;19.876;2022-11-20T18:17:22;137.65;;;49.10;;
55308;SDS011;44028;51.358;19.876;2022-11-20T18:19:53;216.95;;;70.57;;
55308;SDS011;44028;51.358;19.876;2022-11-20T18:22:52;203.73;;;69.28;;
55308;SDS011;44028;51.358;19.876;2022-11-20T18:25:26;278.00;;;87.90;;
55308;SDS011;44028;51.358;19.876;2022-11-20T18:27:52;236.20;;;81.97;;
55308;SDS011;44028;51.358;19.876;2022-11-20T18:30:20;297.35;;;93.28;;
55308;SDS011;44028;51.358;19.876;2022-11-20T18:32:47;220.07;;;75.28;;
55308;SDS011;44028;51.358;19.876;2022-11-20T18:35:18;191.95;;;63.90;;
55308;SDS011;44028;51.358;19.876;2022-11-20T18:37:58;254.65;;;93.82;;
55308;SDS011;44028;51.358;19.876;2022-11-20T18:40:40;179.50;;;60.58;;
55308;SDS011;44028;51.358;19.876;2022-11-20T18:43:09;161.77;;;54.90;;
55308;SDS011;44028;51.358;19.876;2022-11-20T18:45:59;206.82;;;73.97;;
55308;SDS011;44028;51.358;19.876;2022-11-20T18:48:26;182.57;;;59.00;;
55308;SDS011;44028;51.358;19.876;2022-11-20T18:50:53;163.38;;;55.20;;
55308;SDS011;44028;51.358;19.876;2022-11-20T18:53:26;215.73;;;74.10;;
55308;SDS011;44028;51.358;19.876;2022-11-20T18:55:54;173.35;;;60.78;;
55308;SDS011;44028;51.358;19.876;2022-11-20T18:58:21;204.57;;;70.43;;
55308;SDS011;44028;51.358;19.876;2022-11-20T19:00:49;186.63;;;66.35;;
55308;SDS011;44028;51.358;19.876;2022-11-20T19:03:16;189.52;;;63.83;;
55308;SDS011;44028;51.358;19.876;2022-11-20T19:05:44;147.70;;;55.97;;
55308;SDS011;44028;51.358;19.876;2022-11-20T19:08:11;176.07;;;65.20;;
55308;SDS011;44028;51.358;19.876;2022-11-20T19:10:39;120.55;;;44.13;;
55308;SDS011;44028;51.358;19.876;2022-11-20T19:13:12;114.60;;;43.63;;
55308;SDS011;44028;51.358;19.876;2022-11-20T19:15:45;119.45;;;43.75;;
55308;SDS011;44028;51.358;19.876;2022-11-20T19:18:13;149.02;;;50.90;;
55308;SDS011;44028;51.358;19.876;2022-11-20T19:20:41;136.13;;;47.13;;
55308;SDS011;44028;51.358;19.876;2022-11-20T19:23:08;146.05;;;48.70;;
55308;SDS011;44028;51.358;19.876;2022-11-20T19:25:36;137.15;;;46.90;;
55308;SDS011;44028;51.358;19.876;2022-11-20T19:28:06;140.48;;;46.97;;
55308;SDS011;44028;51.358;19.876;2022-11-20T19:30:33;136.23;;;47.95;;
55308;SDS011;44028;51.358;19.876;2022-11-20T19:33:04;126.75;;;44.58;;
55308;SDS011;44028;51.358;19.876;2022-11-20T19:35:32;148.20;;;49.00;;
55308;SDS011;44028;51.358;19.876;2022-11-20T19:38:01;143.38;;;47.72;;
55308;SDS011;44028;51.358;19.876;2022-11-20T19:40:36;127.50;;;43.03;;
55308;SDS011;44028;51.358;19.876;2022-11-20T19:43:23;134.13;;;46.83;;
55308;SDS011;44028;51.358;19.876;2022-11-20T19:45:49;164.77;;;55.05;;
55308;SDS011;44028;51.358;19.876;2022-11-20T19:48:19;157.13;;;55.15;;
55308;SDS011;44028;51.358;19.876;2022-11-20T19:50:48;142.00;;;48.25;;
55308;SDS011;44028;51.358;19.876;2022-11-20T19:53:16;129.40;;;46.95;;
55308;SDS011;44028;51.358;19.876;2022-11-20T19:55:56;153.57;;;54.53;;
55308;SDS011;44028;51.358;19.876;2022-11-20T19:58:27;148.57;;;52.00;;
55308;SDS011;44028;51.358;19.876;2022-11-20T20:01:11;172.55;;;57.58;;
55308;SDS011;44028;51.358;19.876;2022-11-20T20:03:39;169.35;;;57.28;;
55308;SDS011;44028;51.358;19.876;2022-11-20T20:06:08;146.90;;;49.85;;
55308;SDS011;44028;51.358;19.876;2022-11-20T20:08:36;171.38;;;59.38;;
55308;SDS011;44028;51.358;19.876;2022-11-20T20:13:44;132.20;;;50.45;;
55308;SDS011;44028;51.358;19.876;2022-11-20T20:16:14;174.45;;;63.58;;
55308;SDS011;44028;51.358;19.876;2022-11-20T20:18:42;123.75;;;46.33;;
55308;SDS011;44028;51.358;19.876;2022-11-20T20:21:11;181.50;;;62.03;;
55308;SDS011;44028;51.358;19.876;2022-11-20T20:23:38;156.88;;;54.13;;
55308;SDS011;44028;51.358;19.876;2022-11-20T20:26:07;160.00;;;56.40;;
55308;SDS011;44028;51.358;19.876;2022-11-20T20:28:34;165.10;;;54.40;;
55308;SDS011;44028;51.358;19.876;2022-11-20T20:31:07;154.35;;;52.75;;
55308;SDS011;44028;51.358;19.876;2022-11-20T20:33:35;131.95;;;44.15;;
55308;SDS011;44028;51.358;19.876;2022-11-20T20:36:05;138.00;;;45.60;;
55308;SDS011;44028;51.358;19.876;2022-11-20T20:38:38;123.50;;;43.45;;
55308;SDS011;44028;51.358;19.876;2022-11-20T20:41:08;127.32;;;45.60;;
55308;SDS011;44028;51.358;19.876;2022-11-20T20:43:35;136.65;;;46.50;;
55308;SDS011;44028;51.358;19.876;2022-11-20T20:46:23;130.88;;;46.15;;
55308;SDS011;44028;51.358;19.876;2022-11-20T20:48:54;157.63;;;52.42;;
55308;SDS011;44028;51.358;19.876;2022-11-20T20:51:22;129.63;;;45.80;;
55308;SDS011;44028;51.358;19.876;2022-11-20T20:53:49;131.75;;;45.70;;
55308;SDS011;44028;51.358;19.876;2022-11-20T20:56:18;133.07;;;48.42;;
55308;SDS011;44028;51.358;19.876;2022-11-20T21:01:20;117.82;;;42.25;;
55308;SDS011;44028;51.358;19.876;2022-11-20T21:03:48;127.63;;;43.17;;
55308;SDS011;44028;51.358;19.876;2022-11-20T21:06:14;113.35;;;41.20;;
55308;SDS011;44028;51.358;19.876;2022-11-20T21:08:41;121.75;;;47.30;;
55308;SDS011;44028;51.358;19.876;2022-11-20T21:11:11;118.43;;;40.75;;
55308;SDS011;44028;51.358;19.876;2022-11-20T21:13:38;136.32;;;47.70;;
55308;SDS011;44028;51.358;19.876;2022-11-20T21:16:06;133.30;;;45.42;;
55308;SDS011;44028;51.358;19.876;2022-11-20T21:18:33;146.13;;;52.20;;
55308;SDS011;44028;51.358;19.876;2022-11-20T21:21:02;197.63;;;66.35;;
55308;SDS011;44028;51.358;19.876;2022-11-20T21:23:46;155.43;;;54.70;;
55308;SDS011;44028;51.358;19.876;2022-11-20T21:26:14;167.40;;;58.45;;
55308;SDS011;44028;51.358;19.876;2022-11-20T21:28:41;121.90;;;44.40;;
55308;SDS011;44028;51.358;19.876;2022-11-20T21:31:09;148.02;;;51.25;;
55308;SDS011;44028;51.358;19.876;2022-11-20T21:33:37;112.10;;;43.17;;
55308;SDS011;44028;51.358;19.876;2022-11-20T21:36:05;101.30;;;39.30;;
55308;SDS011;44028;51.358;19.876;2022-11-20T21:38:31;101.97;;;38.92;;
55308;SDS011;44028;51.358;19.876;2022-11-20T21:40:59;103.90;;;38.30;;
55308;SDS011;44028;51.358;19.876;2022-11-20T21:43:26;101.75;;;41.03;;
55308;SDS011;44028;51.358;19.876;2022-11-20T21:45:52;115.07;;;43.15;;
55308;SDS011;44028;51.358;19.876;2022-11-20T21:48:21;121.55;;;43.85;;
55308;SDS011;44028;51.358;19.876;2022-11-20T21:50:49;114.00;;;42.75;;
55308;SDS011;44028;51.358;19.876;2022-11-20T21:53:15;103.65;;;41.13;;
55308;SDS011;44028;51.358;19.876;2022-11-20T21:55:42;102.05;;;39.45;;
55308;SDS011;44028;51.358;19.876;2022-11-20T21:58:09;99.80;;;37.97;;
55308;SDS011;44028;51.358;19.876;2022-11-20T22:00:36;104.75;;;39.63;;
55308;SDS011;44028;51.358;19.876;2022-11-20T22:03:02;114.93;;;43.85;;
55308;SDS011;44028;51.358;19.876;2022-11-20T22:05:29;108.63;;;39.85;;
55308;SDS011;44028;51.358;19.876;2022-11-20T22:07:56;156.43;;;56.13;;
55308;SDS011;44028;51.358;19.876;2022-11-20T22:10:23;223.63;;;75.07;;
55308;SDS011;44028;51.358;19.876;2022-11-20T22:12:50;248.20;;;79.75;;
55308;SDS011;44028;51.358;19.876;2022-11-20T22:15:18;192.63;;;61.97;;
55308;SDS011;44028;51.358;19.876;2022-11-20T22:18:05;181.45;;;59.53;;
55308;SDS011;44028;51.358;19.876;2022-11-20T22:20:41;156.82;;;50.03;;
55308;SDS011;44028;51.358;19.876;2022-11-20T22:23:07;138.85;;;46.67;;
55308;SDS011;44028;51.358;19.876;2022-11-20T22:25:34;131.75;;;44.40;;
55308;SDS011;44028;51.358;19.876;2022-11-20T22:28:01;115.78;;;43.08;;
55308;SDS011;44028;51.358;19.876;2022-11-20T22:30:27;121.72;;;43.58;;
55308;SDS011;44028;51.358;19.876;2022-11-20T22:32:54;134.02;;;45.17;;
55308;SDS011;44028;51.358;19.876;2022-11-20T22:35:25;138.40;;;45.17;;
55308;SDS011;44028;51.358;19.876;2022-11-20T22:37:51;139.95;;;47.70;;
55308;SDS011;44028;51.358;19.876;2022-11-20T22:40:18;193.63;;;56.25;;
55308;SDS011;44028;51.358;19.876;2022-11-20T22:42:46;201.32;;;60.92;;
55308;SDS011;44028;51.358;19.876;2022-11-20T22:45:12;194.40;;;61.65;;
55308;SDS011;44028;51.358;19.876;2022-11-20T22:47:39;162.68;;;52.85;;
55308;SDS011;44028;51.358;19.876;2022-11-20T22:50:06;137.43;;;47.28;;
55308;SDS011;44028;51.358;19.876;2022-11-20T22:52:32;137.27;;;47.97;;
55308;SDS011;44028;51.358;19.876;2022-11-20T22:54:59;137.88;;;45.53;;
55308;SDS011;44028;51.358;19.876;2022-11-20T22:57:26;142.80;;;48.97;;
55308;SDS011;44028;51.358;19.876;2022-11-20T22:59:53;140.10;;;49.45;;
55308;SDS011;44028;51.358;19.876;2022-11-20T23:02:19;149.55;;;49.70;;
55308;SDS011;44028;51.358;19.876;2022-11-20T23:04:46;151.15;;;51.70;;
55308;SDS011;44028;51.358;19.876;2022-11-20T23:07:13;143.90;;;51.30;;
55308;SDS011;44028;51.358;19.876;2022-11-20T23:09:40;155.98;;;50.47;;
55308;SDS011;44028;51.358;19.876;2022-11-20T23:12:06;146.07;;;50.72;;
55308;SDS011;44028;51.358;19.876;2022-11-20T23:14:33;170.48;;;57.60;;
55308;SDS011;44028;51.358;19.876;2022-11-20T23:17:00;187.30;;;62.35;;
55308;SDS011;44028;51.358;19.876;2022-11-20T23:19:26;169.55;;;57.15;;
55308;SDS011;44028;51.358;19.876;2022-11-20T23:21:55;153.13;;;51.45;;
55308;SDS011;44028;51.358;19.876;2022-11-20T23:24:22;163.65;;;54.85;;
55308;SDS011;44028;51.358;19.876;2022-11-20T23:26:49;154.55;;;54.22;;
55308;SDS011;44028;51.358;19.876;2022-11-20T23:29:16;172.68;;;55.45;;
55308;SDS011;44028;51.358;19.876;2022-11-20T23:31:43;158.60;;;55.50;;
55308;SDS011;44028;51.358;19.876;2022-11-20T23:34:09;164.32;;;54.60;;
55308;SDS011;44028;51.358;19.876;2022-11-20T23:36:36;171.20;;;54.00;;
55308;SDS011;44028;51.358;19.876;2022-11-20T23:39:03;129.38;;;48.30;;
55308;SDS011;44028;51.358;19.876;2022-11-20T23:41:29;125.78;;;44.60;;
55308;SDS011;44028;51.358;19.876;2022-11-20T23:43:56;116.88;;;40.33;;
55308;SDS011;44028;51.358;19.876;2022-11-20T23:46:23;106.35;;;38.03;;
55308;SDS011;44028;51.358;19.876;2022-11-20T23:48:50;119.90;;;39.80;;
55308;SDS011;44028;51.358;19.876;2022-11-20T23:51:16;122.45;;;42.30;;
55308;SDS011;44028;51.358;19.876;2022-11-20T23:53:43;116.03;;;39.78;;
55308;SDS011;44028;51.358;19.876;2022-11-20T23:56:10;91.30;;;33.50;;
55308;SDS011;44028;51.358;19.876;2022-11-20T23:58:40;101.18;;;34.28;;
